KEST

Details ICAO KEST
Name ESTHERVILLE MUNI
Region United States
Timezone America/Chicago (UTC-5.0)
Plans Departing 4
Arriving 1
Stats Elevation 1,319 ft / 402 m (AMSL)
Location 43.407108° -94.746490°
Runways 2
Magnetic Variation 1.501° E
Sunrise 2018-05-20 10:51:06 UTC / 2018-05-20 05:51:06 Local
Sunset 2018-05-21 01:42:48 UTC / 2018-05-20 20:42:48 Local
Advertisement - Login to hide

Runways

ID Width Length Bearing (true) Bearing (mag) Surface Threshold Offset Overrun Length
06 90 ft / 27 m 2,978 ft / 908 m 72.77° 71.27° Dirt 0 ft / 0 m 0 ft / 0 m
16 75 ft / 23 m 4,801 ft / 1,463 m 169.63° 168.13° Concrete 0 ft / 0 m 0 ft / 0 m
24 90 ft / 27 m 2,978 ft / 908 m 252.77° 251.27° Dirt 0 ft / 0 m 0 ft / 0 m
34 75 ft / 23 m 4,801 ft / 1,463 m 349.63° 348.13° Concrete 0 ft / 0 m 0 ft / 0 m

Map

Weather


0- 5 10 15 20 25 30 35+ Temperature / ° C

Clouds and Precipitation
Forecast for 2018-05-21 06:00 UTC. Updated a few seconds ago

Ground ~20,000 ft ~40,000 ft Winds

METAR

KEST 210513Z AUTO 07009KT 9SM -RA SCT028 SCT036 OVC050 13/11 A3010 RMK AO2 RAB12 P0001 T01280111

TAF

Not found

Frequencies

Recorded 121.42 MHz ASOS
Unicom 122.80 MHz CTAF/UNICOM
Warning: Do not use this data for real-world aviation or navigation. No guarantee of current accuracy is given.